Terminal Aerodrome Forecast
Issued by NWS

Home | Current Version | Previous Version | Text Only | Print | Product List | Glossary On
Versions: 1 2 3 4 5 6 7 8 9 10 11 12 13 14 15 16 17
172
FTUS43 KDLH 090128 AAA
TAFBRD
TAF AMD
KBRD 090128Z 0901/0924 31009KT P6SM BKN035
      TEMPO 0901/0903 -SHSN BKN027
     FM090600 31008KT P6SM SCT027 BKN070
     FM091200 30008KT P6SM BKN025
     FM091400 29007KT P6SM BKN015
     FM091800 29007KT P6SM SCT015 BKN025=

USA.gov is the U.S. government's official web portal to all federal, state and local government web resources and services.